createdAt,value
2023-04-27T08:37:00.475Z,12.60
2023-04-27T08:42:12.875Z,12.70
2023-04-27T08:44:41.573Z,12.70
2023-04-27T08:47:10.472Z,12.80
2023-04-27T08:50:05.397Z,12.80
2023-04-27T08:52:35.981Z,12.90
2023-04-27T08:55:04.953Z,12.90
2023-04-27T08:57:42.451Z,12.90
2023-04-27T09:00:13.417Z,12.90
2023-04-27T09:02:49.544Z,12.90
2023-04-27T09:06:03.070Z,13.00
2023-04-27T09:08:47.007Z,12.90
2023-04-27T09:11:16.611Z,12.90
2023-04-27T09:14:10.761Z,13.00
2023-04-27T09:16:39.326Z,12.90
2023-04-27T09:19:07.886Z,13.00
2023-04-27T09:21:36.233Z,13.00
2023-04-27T09:24:14.110Z,13.00
2023-04-27T09:26:43.119Z,13.10
2023-04-27T09:29:12.031Z,13.10
2023-04-27T09:31:40.683Z,13.20
2023-04-27T09:34:09.182Z,13.20
2023-04-27T09:36:38.004Z,13.30
2023-04-27T09:39:06.564Z,13.40
2023-04-27T09:41:37.659Z,13.40
2023-04-27T09:44:06.618Z,13.50
2023-04-27T09:46:35.331Z,13.50
2023-04-27T09:49:06.192Z,13.60
2023-04-27T09:51:35.357Z,13.70
2023-04-27T09:54:05.897Z,13.60
2023-04-27T09:56:45.734Z,13.70
2023-04-27T09:59:37.731Z,13.70
2023-04-27T10:02:20.867Z,13.70
2023-04-27T10:05:25.982Z,13.70
2023-04-27T10:07:54.796Z,13.70
2023-04-27T10:10:23.453Z,13.70
2023-04-27T10:13:02.301Z,13.80
2023-04-27T10:15:31.102Z,13.80
2023-04-27T10:18:06.198Z,13.90
2023-04-27T10:20:36.260Z,13.90
2023-04-27T10:23:05.696Z,13.90
2023-04-27T10:25:40.640Z,14.00
2023-04-27T10:28:17.477Z,14.00
2023-04-27T10:30:49.338Z,14.10
2023-04-27T10:33:19.393Z,14.10
2023-04-27T10:36:00.526Z,14.10
2023-04-27T10:38:31.046Z,14.10
2023-04-27T10:41:02.542Z,14.10
2023-04-27T10:43:34.610Z,14.20
2023-04-27T10:46:11.707Z,14.30
2023-04-27T10:48:40.801Z,14.30
2023-04-27T10:51:09.931Z,14.40
2023-04-27T10:53:38.986Z,14.50
2023-04-27T10:56:08.227Z,14.60
2023-04-27T11:01:10.740Z,14.80
2023-04-27T11:03:39.385Z,14.80
2023-04-27T11:06:08.684Z,14.80
2023-04-27T11:08:45.815Z,14.80
2023-04-27T11:11:16.972Z,14.80
2023-04-27T11:13:50.719Z,14.80
2023-04-27T11:16:19.722Z,14.80
2023-04-27T11:18:48.582Z,14.80
2023-04-27T11:21:18.927Z,14.90
2023-04-27T11:23:47.961Z,14.90
2023-04-27T11:26:18.147Z,15.00
2023-04-27T11:28:59.882Z,15.00
2023-04-27T11:31:29.145Z,15.00
2023-04-27T11:33:58.027Z,15.10
2023-04-27T11:36:27.417Z,15.10
2023-04-27T11:39:00.457Z,15.10
2023-04-27T11:41:39.539Z,15.10
2023-04-27T11:44:16.674Z,15.10
2023-04-27T11:46:48.186Z,15.10
2023-04-27T11:49:17.188Z,15.10
2023-04-27T11:51:48.781Z,15.10
2023-04-27T11:54:17.501Z,15.10
2023-04-27T11:56:46.557Z,15.10
2023-04-27T11:59:24.272Z,15.10
2023-04-27T12:01:56.431Z,15.10
2023-04-27T12:04:25.217Z,15.20
2023-04-27T12:06:53.868Z,15.20
2023-04-27T12:09:22.971Z,15.20
2023-04-27T12:11:51.704Z,15.20
2023-04-27T12:14:20.700Z,15.20
2023-04-27T12:16:50.922Z,15.30
2023-04-27T12:19:19.844Z,15.30
2023-04-27T12:21:49.038Z,15.30
2023-04-27T12:24:17.751Z,15.40
2023-04-27T12:26:46.772Z,15.40
2023-04-27T12:29:16.093Z,15.40
2023-04-27T12:31:44.760Z,15.40
2023-04-27T12:34:15.051Z,15.40
2023-04-27T12:36:43.947Z,15.40
2023-04-27T12:39:17.029Z,15.50
2023-04-27T12:41:46.348Z,15.50
2023-04-27T12:44:16.776Z,15.50
2023-04-27T12:46:46.189Z,15.50
2023-04-27T12:49:16.405Z,15.60
2023-04-27T12:51:45.604Z,15.60
2023-04-27T12:54:14.431Z,15.60
2023-04-27T12:56:43.477Z,15.60
2023-04-27T12:59:12.146Z,15.70
2023-04-27T13:01:40.741Z,15.70
2023-04-27T13:04:09.468Z,15.80
2023-04-27T13:06:39.659Z,15.80
2023-04-27T13:09:08.186Z,15.80
2023-04-27T13:11:37.335Z,15.90
2023-04-27T13:14:06.329Z,15.90
2023-04-27T13:16:35.050Z,16.00
2023-04-27T13:19:03.861Z,16.00
2023-04-27T13:21:33.489Z,16.10
2023-04-27T13:24:03.604Z,16.10
2023-04-27T13:26:32.353Z,16.20
2023-04-27T13:29:01.282Z,16.20
2023-04-27T13:31:29.980Z,16.20
2023-04-27T13:33:58.755Z,16.20
2023-04-27T13:36:27.364Z,16.30
2023-04-27T13:39:27.159Z,16.30
2023-04-27T13:41:57.827Z,16.30
2023-04-27T13:44:26.389Z,16.30
2023-04-27T13:46:55.058Z,16.40
2023-04-27T13:49:23.646Z,16.40
2023-04-27T13:51:52.207Z,16.50
2023-04-27T13:54:21.575Z,16.60
2023-04-27T13:56:50.267Z,16.60
2023-04-27T13:59:21.779Z,16.60
2023-04-27T14:01:50.458Z,16.60
2023-04-27T14:04:18.953Z,16.70
2023-04-27T14:06:47.754Z,16.70
2023-04-27T14:09:17.017Z,16.70
2023-04-27T14:11:55.710Z,16.60
2023-04-27T14:14:27.424Z,16.60
2023-04-27T14:16:56.953Z,16.60
2023-04-27T14:19:27.433Z,16.60
2023-04-27T14:21:56.687Z,16.60
2023-04-27T14:24:25.291Z,16.60
2023-04-27T14:26:54.096Z,16.60
2023-04-27T14:29:22.565Z,16.60
2023-04-27T14:31:52.808Z,16.60
2023-04-27T14:34:21.769Z,16.60
2023-04-27T14:36:50.389Z,16.60
2023-04-27T14:39:19.002Z,16.60
2023-04-27T14:41:47.538Z,16.70
2023-04-27T14:44:16.054Z,16.70
2023-04-27T14:46:44.528Z,16.70
2023-04-27T14:49:14.613Z,16.80
2023-04-27T14:51:43.727Z,16.80
2023-04-27T14:54:13.224Z,16.90
2023-04-27T14:56:41.976Z,16.90
2023-04-27T14:59:10.481Z,16.90
2023-04-27T15:01:38.950Z,16.90
2023-04-27T15:04:07.484Z,16.90
2023-04-27T15:06:37.370Z,16.90
2023-04-27T15:09:06.226Z,16.90
2023-04-27T15:11:35.306Z,16.90
2023-04-27T15:14:03.703Z,17.00
2023-04-27T15:16:32.233Z,17.00
2023-04-27T15:19:00.905Z,17.10
2023-04-27T15:21:29.479Z,17.20
2023-04-27T15:23:59.484Z,17.20
2023-04-27T15:26:28.113Z,17.30
2023-04-27T15:28:58.233Z,17.20
2023-04-27T15:31:26.874Z,17.20
2023-04-27T15:33:55.629Z,17.20
2023-04-27T15:36:26.869Z,17.20
2023-04-27T15:38:56.107Z,17.20
2023-04-27T15:41:26.462Z,17.20
2023-04-27T15:43:55.242Z,17.20
2023-04-27T15:46:23.855Z,17.20
2023-04-27T15:48:52.403Z,17.20
2023-04-27T15:51:21.056Z,17.10
2023-04-27T15:53:49.693Z,17.10
2023-04-27T15:56:18.206Z,17.10
2023-04-27T15:58:48.332Z,17.00
2023-04-27T16:01:16.982Z,17.00
2023-04-27T16:03:45.746Z,17.00
2023-04-27T16:06:14.316Z,16.90
2023-04-27T16:08:42.738Z,16.90
2023-04-27T16:11:14.292Z,16.90
2023-04-27T16:13:43.082Z,16.90
2023-04-27T16:16:13.286Z,16.90
2023-04-27T16:18:41.920Z,16.90
2023-04-27T16:21:10.525Z,17.00
2023-04-27T16:23:39.008Z,17.00
2023-04-27T16:26:07.464Z,17.10
2023-04-27T16:28:51.732Z,17.10
2023-04-27T16:31:21.867Z,17.10
2023-04-27T16:33:50.658Z,17.20
2023-04-27T16:36:19.286Z,17.20
2023-04-27T16:38:48.038Z,17.20
2023-04-27T16:41:20.046Z,17.30
2023-04-27T16:43:48.800Z,17.30
2023-04-27T16:46:17.736Z,17.30
2023-04-27T16:48:47.810Z,17.30
2023-04-27T16:51:16.669Z,17.40
2023-04-27T16:53:45.365Z,17.30
2023-04-27T16:56:14.483Z,17.40
2023-04-27T16:58:43.076Z,17.40
2023-04-27T17:01:11.927Z,17.30
2023-04-27T17:03:40.744Z,17.30
2023-04-27T17:06:10.869Z,17.30
2023-04-27T17:08:39.575Z,17.30
2023-04-27T17:11:09.801Z,17.30
2023-04-27T17:13:38.540Z,17.30
2023-04-27T17:16:11.737Z,17.30
2023-04-27T17:18:40.815Z,17.30
2023-04-27T17:21:11.106Z,17.30
2023-04-27T17:23:41.594Z,17.30
2023-04-27T17:26:10.923Z,17.40
2023-04-27T17:28:39.916Z,17.40
2023-04-27T17:31:08.870Z,17.40
2023-04-27T17:33:38.206Z,17.40
2023-04-27T17:36:07.539Z,17.30
2023-04-27T17:38:37.594Z,17.40
2023-04-27T17:41:06.440Z,17.30
2023-04-27T17:43:35.369Z,17.30
2023-04-27T17:46:09.183Z,17.30
2023-04-27T17:48:38.111Z,17.30
2023-04-27T17:51:08.633Z,17.20
2023-04-27T17:53:38.563Z,17.20
2023-04-27T17:56:07.300Z,17.20
2023-04-27T17:58:35.862Z,17.10
2023-04-27T18:01:04.640Z,17.10
2023-04-27T18:03:33.422Z,17.10
2023-04-27T18:06:02.395Z,17.00
2023-04-27T18:08:31.147Z,17.00
2023-04-27T18:11:01.058Z,17.00
2023-04-27T18:13:31.927Z,17.00
2023-04-27T18:16:00.663Z,16.90
2023-04-27T18:18:29.433Z,16.80
2023-04-27T18:20:57.967Z,16.80
2023-04-27T18:23:41.241Z,16.80
2023-04-27T18:26:14.561Z,16.70
2023-04-27T18:28:43.005Z,16.70
2023-04-27T18:31:18.425Z,16.70
2023-04-27T18:33:47.836Z,16.70
2023-04-27T18:36:16.499Z,16.60
2023-04-27T18:38:44.981Z,16.60
2023-04-27T18:41:15.130Z,16.60
2023-04-27T18:43:43.831Z,16.50
2023-04-27T18:46:12.661Z,16.50
2023-04-27T18:48:41.281Z,16.40
2023-04-27T18:51:09.801Z,16.40
2023-04-27T18:53:38.308Z,16.40
2023-04-27T18:56:08.854Z,16.30
2023-04-27T18:58:39.628Z,16.30
2023-04-27T19:01:08.448Z,16.30
2023-04-27T19:03:37.129Z,16.20
2023-04-27T19:06:05.699Z,16.20
2023-04-27T19:08:34.264Z,16.20
2023-04-27T19:11:03.019Z,16.10
2023-04-27T19:13:31.477Z,16.10
2023-04-27T19:16:01.723Z,16.10
2023-04-27T19:18:30.378Z,16.00
2023-04-27T19:20:59.391Z,16.00
2023-04-27T19:23:28.027Z,15.90
2023-04-27T19:26:02.732Z,15.90
2023-04-27T19:28:38.561Z,15.90
2023-04-27T19:31:08.559Z,15.90
2023-04-27T19:33:37.225Z,15.80
2023-04-27T19:36:06.009Z,15.80
2023-04-27T19:38:34.651Z,15.80
2023-04-27T19:41:04.330Z,15.80
2023-04-27T19:43:32.832Z,15.80
2023-04-27T19:46:02.952Z,15.70
2023-04-27T19:48:32.909Z,15.70
2023-04-27T19:51:01.503Z,15.70
2023-04-27T19:53:30.284Z,15.70
2023-04-27T19:56:00.529Z,15.70
2023-04-27T19:58:29.257Z,15.70
2023-04-27T20:00:57.666Z,15.70
2023-04-27T20:03:26.360Z,15.60
2023-04-27T20:05:59.312Z,15.60
2023-04-27T20:08:28.207Z,15.60
2023-04-27T20:10:56.759Z,15.60
2023-04-27T20:13:25.371Z,15.50
2023-04-27T20:15:53.958Z,15.50
2023-04-27T20:18:22.590Z,15.50
2023-04-27T20:20:51.556Z,15.50
2023-04-27T20:23:21.384Z,15.50
2023-04-27T20:25:49.908Z,15.40
2023-04-27T20:28:18.390Z,15.40
2023-04-27T20:30:47.059Z,15.40
2023-04-27T20:33:15.608Z,15.40
2023-04-27T20:35:44.126Z,15.40
2023-04-27T20:38:13.101Z,15.40
2023-04-27T20:40:42.993Z,15.40
2023-04-27T20:43:13.384Z,15.40
2023-04-27T20:45:42.239Z,15.40
2023-04-27T20:48:12.054Z,15.30
2023-04-27T20:50:40.837Z,15.30
2023-04-27T20:53:09.581Z,15.40
2023-04-27T20:55:38.463Z,15.30
2023-04-27T20:58:08.430Z,15.30
2023-04-27T21:00:36.865Z,15.30
2023-04-27T21:03:06.684Z,15.30
2023-04-27T21:05:35.368Z,15.30
2023-04-27T21:08:03.799Z,15.30
2023-04-27T21:10:32.267Z,15.30
2023-04-27T21:13:02.062Z,15.30
2023-04-27T21:15:33.440Z,15.30
2023-04-27T21:18:02.009Z,15.30
2023-04-27T21:20:30.724Z,15.30
2023-04-27T21:22:59.184Z,15.30
2023-04-27T21:25:27.652Z,15.30
2023-04-27T21:27:56.134Z,15.30
2023-04-27T21:30:26.471Z,15.30
2023-04-27T21:32:56.441Z,15.30
2023-04-27T21:35:24.877Z,15.30
2023-04-27T21:37:53.669Z,15.30
2023-04-27T21:40:22.314Z,15.30
2023-04-27T21:42:51.694Z,15.20
2023-04-27T21:45:20.497Z,15.30
2023-04-27T21:47:48.876Z,15.20
2023-04-27T21:50:18.836Z,15.20
2023-04-27T21:52:47.282Z,15.30
2023-04-27T21:55:18.147Z,15.20
2023-04-27T21:57:46.555Z,15.20
2023-04-27T22:00:17.024Z,15.20
2023-04-27T22:02:51.553Z,15.20
2023-04-27T22:05:21.782Z,15.20
2023-04-27T22:07:50.182Z,15.20
2023-04-27T22:10:22.586Z,15.20
2023-04-27T22:12:51.066Z,15.20
2023-04-27T22:15:20.386Z,15.10
2023-04-27T22:17:53.802Z,15.20
2023-04-27T22:20:23.666Z,15.10
2023-04-27T22:22:52.074Z,15.20
2023-04-27T22:25:21.834Z,15.10
2023-04-27T22:27:50.269Z,15.10
2023-04-27T22:30:21.065Z,15.10
2023-04-27T22:32:50.159Z,15.10
2023-04-27T22:37:57.183Z,15.10
2023-04-27T22:40:25.732Z,15.10
2023-04-27T22:42:54.165Z,15.10
2023-04-27T22:45:22.764Z,15.10
2023-04-27T22:47:51.401Z,15.00
2023-04-27T22:50:19.901Z,15.00
2023-04-27T22:52:49.998Z,15.00
2023-04-27T22:55:20.634Z,15.00
2023-04-27T22:57:49.960Z,15.00
2023-04-27T23:00:18.713Z,15.00
2023-04-27T23:02:47.598Z,15.00
2023-04-27T23:05:16.857Z,15.00
2023-04-27T23:07:46.427Z,15.00
2023-04-27T23:10:15.237Z,15.00
2023-04-27T23:12:45.525Z,15.00
2023-04-27T23:15:15.276Z,15.00
2023-04-27T23:17:44.161Z,15.00
2023-04-27T23:20:26.624Z,14.90
2023-04-27T23:22:56.787Z,15.00
2023-04-27T23:25:25.206Z,14.90
2023-04-27T23:27:55.043Z,14.90
2023-04-27T23:30:23.695Z,14.90
2023-04-27T23:32:52.459Z,14.90
2023-04-27T23:35:21.208Z,14.90
2023-04-27T23:37:49.564Z,14.90
2023-04-27T23:40:21.139Z,14.90
2023-04-27T23:42:51.522Z,14.90
2023-04-27T23:45:22.339Z,14.90
2023-04-27T23:47:50.810Z,14.90
2023-04-27T23:50:19.462Z,14.90
2023-04-27T23:52:47.852Z,14.90
2023-04-27T23:55:16.773Z,14.90
2023-04-27T23:57:45.280Z,14.90
